Time;durP1;ratioP1;P1;durP2;ratioP2;P2;SDS_P1;SDS_P2;PMS_P1;PMS_P2;Temp;Humidity;BMP_temperature;BMP_pressure;BME280_temperature;BME280_humidity;BME280_pressure;Samples;Min_cycle;Max_cycle;Signal;HPM_P1;HPM_P2
2020/12/29 00:00:05;;;;;;;4.40;4.00;;;11.60;68.80;;;;;;5128838;28;20467;-60
2020/12/29 00:02:32;;;;;;;4.50;4.07;;;11.60;69.00;;;;;;5133189;28;20428;-60
2020/12/29 00:04:59;;;;;;;5.90;4.10;;;11.70;68.80;;;;;;5133036;28;20499;-59
2020/12/29 00:07:26;;;;;;;4.33;3.93;;;11.70;68.80;;;;;;5132508;28;20443;-60
2020/12/29 00:09:53;;;;;;;5.67;4.43;;;11.60;69.00;;;;;;5132990;28;20427;-60
2020/12/29 00:12:20;;;;;;;4.90;4.07;;;11.70;68.90;;;;;;5132900;27;20522;-60
2020/12/29 00:14:47;;;;;;;4.40;4.00;;;11.60;69.00;;;;;;5132355;28;20546;-60
2020/12/29 00:17:14;;;;;;;5.33;4.83;;;11.70;69.00;;;;;;5133323;28;20439;-60
2020/12/29 00:19:41;;;;;;;4.00;3.70;;;11.60;69.10;;;;;;5132385;27;20426;-60
2020/12/29 00:22:08;;;;;;;5.10;4.20;;;11.70;69.10;;;;;;5135972;27;20483;-60
2020/12/29 00:24:35;;;;;;;6.13;4.23;;;11.60;69.00;;;;;;5136606;27;20660;-60
2020/12/29 00:27:03;;;;;;;4.50;4.00;;;11.60;69.20;;;;;;5136203;27;20462;-60
2020/12/29 00:29:30;;;;;;;4.73;4.23;;;11.60;69.10;;;;;;5136820;27;20467;-59
2020/12/29 00:32:01;;;;;;;4.20;3.83;;;11.60;69.20;;;;;;5136493;27;20445;-60
2020/12/29 00:34:27;;;;;;;4.37;3.97;;;11.60;69.30;;;;;;5131261;27;20510;-60
2020/12/29 00:36:54;;;;;;;4.50;4.10;;;11.60;69.00;;;;;;5136531;27;20427;-59
2020/12/29 00:39:21;;;;;;;5.17;4.17;;;11.60;69.30;;;;;;5136147;27;20454;-59
2020/12/29 00:41:48;;;;;;;4.83;4.30;;;11.70;69.40;;;;;;5135354;27;20491;-60
2020/12/29 00:44:15;;;;;;;4.40;4.00;;;11.70;69.10;;;;;;5136239;27;20469;-60
2020/12/29 00:46:42;;;;;;;4.33;3.93;;;11.70;69.10;;;;;;5136630;27;20543;-60
2020/12/29 00:49:09;;;;;;;4.90;4.37;;;11.60;69.30;;;;;;5136499;27;20428;-60
2020/12/29 00:51:36;;;;;;;4.23;3.77;;;11.70;69.40;;;;;;5135555;27;20510;-60
2020/12/29 00:54:03;;;;;;;4.83;3.90;;;11.60;69.40;;;;;;5133234;27;20555;-60
2020/12/29 00:56:30;;;;;;;4.00;3.60;;;11.60;69.50;;;;;;5136416;27;20458;-59
2020/12/29 00:58:56;;;;;;;5.57;4.50;;;11.60;69.50;;;;;;5135823;27;20558;-59
2020/12/29 01:01:23;;;;;;;4.47;4.07;;;11.60;69.30;;;;;;5135570;27;20423;-59
2020/12/29 01:03:51;;;;;;;4.03;3.70;;;11.60;69.60;;;;;;5135813;27;20454;-61
2020/12/29 01:06:25;;;;;;;5.53;3.97;;;11.60;69.40;;;;;;5135830;27;20431;-59
2020/12/29 01:08:52;;;;;;;5.20;3.70;;;11.60;69.50;;;;;;5135823;27;20430;-59
2020/12/29 01:11:31;;;;;;;4.27;3.87;;;11.60;69.50;;;;;;5135868;27;20456;-59
2020/12/29 01:13:57;;;;;;;3.87;3.57;;;11.60;69.60;;;;;;5135424;27;20533;-59
2020/12/29 01:16:24;;;;;;;3.40;3.10;;;11.60;69.60;;;;;;5132811;27;20521;-59
2020/12/29 01:18:52;;;;;;;4.77;3.80;;;11.60;69.60;;;;;;5135624;27;20435;-59
2020/12/29 01:21:19;;;;;;;3.90;3.60;;;11.50;69.60;;;;;;5135258;27;20432;-59
2020/12/29 01:23:46;;;;;;;4.40;4.03;;;11.60;69.60;;;;;;5135757;27;20427;-59
2020/12/29 01:26:13;;;;;;;4.37;3.90;;;11.60;69.70;;;;;;5135226;27;20496;-61
2020/12/29 01:28:40;;;;;;;4.17;3.80;;;11.60;69.60;;;;;;5135325;27;20459;-59
2020/12/29 01:31:07;;;;;;;3.90;3.60;;;11.60;69.60;;;;;;5134734;27;20442;-59
2020/12/29 01:33:34;;;;;;;4.53;4.13;;;11.50;69.80;;;;;;5134974;27;20435;-59
2020/12/29 01:36:02;;;;;;;3.77;3.47;;;11.60;69.80;;;;;;5129859;27;20499;-59
2020/12/29 01:38:29;;;;;;;4.13;3.80;;;11.60;69.60;;;;;;5135492;27;20420;-59
2020/12/29 01:40:59;;;;;;;4.07;3.67;;;11.60;69.50;;;;;;5134672;27;20474;-61
2020/12/29 01:43:28;;;;;;;4.90;4.13;;;11.60;69.40;;;;;;5132394;27;20527;-59
2020/12/29 01:45:56;;;;;;;5.90;3.77;;;11.50;69.60;;;;;;5135276;27;20559;-59
2020/12/29 01:48:23;;;;;;;4.60;4.20;;;11.50;69.80;;;;;;5135245;27;20430;-59
2020/12/29 01:50:49;;;;;;;4.00;3.70;;;11.60;69.70;;;;;;5134569;27;20511;-60
2020/12/29 01:53:17;;;;;;;3.70;3.40;;;11.60;69.80;;;;;;5134802;27;20439;-59
2020/12/29 01:55:44;;;;;;;5.00;3.60;;;11.50;69.70;;;;;;5134763;27;20502;-60
2020/12/29 01:58:11;;;;;;;4.33;4.03;;;11.50;69.80;;;;;;5134704;27;20496;-59
2020/12/29 02:00:38;;;;;;;4.53;4.13;;;11.40;70.00;;;;;;5133364;27;20500;-59
2020/12/29 02:03:05;;;;;;;4.40;3.83;;;11.50;70.00;;;;;;5132549;27;20518;-61
2020/12/29 02:05:32;;;;;;;4.10;3.80;;;11.50;69.70;;;;;;5135181;27;20479;-61
2020/12/29 02:07:59;;;;;;;7.57;4.23;;;11.60;69.60;;;;;;5134895;27;20492;-58
2020/12/29 02:10:26;;;;;;;4.47;3.80;;;11.60;69.60;;;;;;5133729;27;20740;-59
2020/12/29 02:12:53;;;;;;;5.10;3.90;;;11.50;69.60;;;;;;5134537;27;20491;-59
2020/12/29 02:15:20;;;;;;;5.03;3.70;;;11.60;69.70;;;;;;5133860;27;20473;-59
2020/12/29 02:17:47;;;;;;;4.00;3.60;;;11.60;69.70;;;;;;5134784;27;20455;-59
2020/12/29 02:20:13;;;;;;;3.73;3.43;;;11.60;69.70;;;;;;5133886;27;20477;-59
2020/12/29 02:22:41;;;;;;;4.10;3.70;;;11.60;69.60;;;;;;5134485;27;20438;-59
2020/12/29 02:25:08;;;;;;;3.70;3.20;;;11.50;69.70;;;;;;5134397;27;20503;-59
2020/12/29 02:27:43;;;;;;;4.90;4.20;;;11.60;69.90;;;;;;5134068;27;20455;-59
2020/12/29 02:30:10;;;;;;;4.63;3.83;;;11.50;69.60;;;;;;5132278;27;20457;-59
2020/12/29 02:32:37;;;;;;;4.20;3.80;;;11.50;69.70;;;;;;5134550;27;20530;-59
2020/12/29 02:35:05;;;;;;;4.17;3.77;;;11.50;69.70;;;;;;5128974;27;20467;-59
2020/12/29 02:37:31;;;;;;;4.10;3.77;;;11.50;69.80;;;;;;5129125;27;20542;-59
2020/12/29 02:39:59;;;;;;;3.97;3.67;;;11.60;69.90;;;;;;5132880;27;20435;-59
2020/12/29 02:42:26;;;;;;;5.33;3.73;;;11.60;69.60;;;;;;5134320;27;20478;-59
2020/12/29 02:44:53;;;;;;;3.60;3.30;;;11.50;69.70;;;;;;5130238;27;20419;-59
2020/12/29 02:47:19;;;;;;;4.93;3.60;;;11.50;69.70;;;;;;5134127;27;20431;-59
2020/12/29 02:49:46;;;;;;;4.50;3.70;;;11.50;69.70;;;;;;5133435;27;20526;-59
2020/12/29 02:52:13;;;;;;;4.30;3.90;;;11.60;69.90;;;;;;5131677;27;20431;-59
2020/12/29 02:54:41;;;;;;;4.00;3.70;;;11.50;69.90;;;;;;5133448;27;20470;-59
2020/12/29 02:57:08;;;;;;;5.30;4.00;;;11.50;69.90;;;;;;5134045;27;20443;-59
2020/12/29 02:59:36;;;;;;;4.23;3.93;;;11.50;69.90;;;;;;5133711;27;20437;-59
2020/12/29 03:02:02;;;;;;;3.90;3.60;;;11.50;69.90;;;;;;5133758;27;20522;-59
2020/12/29 03:04:29;;;;;;;3.73;3.43;;;11.60;69.80;;;;;;5133435;27;20451;-59
2020/12/29 03:06:56;;;;;;;3.97;3.57;;;11.60;69.60;;;;;;5133938;27;20545;-59
2020/12/29 03:09:23;;;;;;;4.10;3.80;;;11.60;69.80;;;;;;5134068;28;20514;-59
2020/12/29 03:11:50;;;;;;;3.73;3.43;;;11.50;69.90;;;;;;5132933;28;20431;-59
2020/12/29 03:14:17;;;;;;;3.90;3.60;;;11.60;69.60;;;;;;5134259;28;20450;-59
2020/12/29 03:16:44;;;;;;;4.10;3.70;;;11.60;69.70;;;;;;5133873;28;20471;-59
2020/12/29 03:19:22;;;;;;;4.30;3.87;;;11.50;69.90;;;;;;5132515;28;20419;-60
2020/12/29 03:21:49;;;;;;;3.50;3.20;;;11.50;70.10;;;;;;5132979;28;20435;-59
2020/12/29 03:24:16;;;;;;;3.90;3.60;;;11.60;69.80;;;;;;5133809;28;20438;-59
2020/12/29 03:26:42;;;;;;;3.43;3.13;;;11.50;70.00;;;;;;5133791;28;20431;-59
2020/12/29 03:29:09;;;;;;;4.20;3.80;;;11.50;70.00;;;;;;5133206;28;20447;-59
2020/12/29 03:31:43;;;;;;;3.83;3.53;;;11.50;70.00;;;;;;5133111;28;20554;-60
2020/12/29 03:34:10;;;;;;;4.90;3.23;;;11.50;69.90;;;;;;5133688;28;20510;-59
2020/12/29 03:36:37;;;;;;;5.43;3.97;;;11.60;70.00;;;;;;5133486;28;20483;-59
2020/12/29 03:39:04;;;;;;;3.63;3.40;;;11.50;70.00;;;;;;5133053;28;20477;-59
2020/12/29 03:41:30;;;;;;;3.70;3.40;;;11.50;70.10;;;;;;5132884;28;20423;-59
2020/12/29 03:43:57;;;;;;;4.03;3.63;;;11.50;70.00;;;;;;5133456;28;20443;-59
2020/12/29 03:46:24;;;;;;;3.93;3.63;;;11.50;69.70;;;;;;5133164;27;20465;-59
2020/12/29 03:48:52;;;;;;;3.90;3.60;;;11.50;69.80;;;;;;5133553;28;20431;-59
2020/12/29 03:51:19;;;;;;;4.77;4.00;;;11.50;70.00;;;;;;5132983;28;20442;-59
2020/12/29 03:53:45;;;;;;;5.27;3.70;;;11.50;70.10;;;;;;5133467;28;20427;-59
2020/12/29 03:56:12;;;;;;;4.10;3.70;;;11.50;70.00;;;;;;5136087;27;20506;-59
2020/12/29 03:58:39;;;;;;;4.00;3.70;;;11.50;70.00;;;;;;5137090;27;20525;-60
2020/12/29 04:01:06;;;;;;;3.90;3.60;;;11.60;69.80;;;;;;5136636;27;20477;-60
2020/12/29 04:03:33;;;;;;;5.47;3.60;;;11.50;69.90;;;;;;5137318;27;20419;-59
2020/12/29 04:06:00;;;;;;;4.23;3.87;;;11.60;69.90;;;;;;5136969;27;20510;-59
2020/12/29 04:08:27;;;;;;;3.63;3.23;;;11.60;70.00;;;;;;5137300;27;20439;-61
2020/12/29 04:10:54;;;;;;;4.40;3.90;;;11.50;69.90;;;;;;5134120;27;20449;-61
2020/12/29 04:13:21;;;;;;;3.70;3.40;;;11.50;70.00;;;;;;5136789;27;20525;-62
2020/12/29 04:15:48;;;;;;;3.93;3.53;;;11.50;70.00;;;;;;5137078;27;20498;-61
2020/12/29 04:18:15;;;;;;;4.17;3.70;;;11.50;70.00;;;;;;5134869;27;20441;-59
2020/12/29 04:20:41;;;;;;;4.10;3.70;;;11.50;70.00;;;;;;5136426;27;20464;-60
2020/12/29 04:23:09;;;;;;;3.97;3.60;;;11.60;70.00;;;;;;5136713;27;20427;-60
2020/12/29 04:25:36;;;;;;;4.00;3.70;;;11.60;70.10;;;;;;5136913;27;20459;-59
2020/12/29 04:28:03;;;;;;;4.13;3.60;;;11.60;70.10;;;;;;5137208;27;20431;-59
2020/12/29 04:30:30;;;;;;;4.10;3.80;;;11.60;70.00;;;;;;5137548;27;20475;-59
2020/12/29 04:32:56;;;;;;;3.70;3.50;;;11.60;70.00;;;;;;5137828;27;20478;-59
2020/12/29 04:35:23;;;;;;;4.03;3.70;;;11.60;70.00;;;;;;5137927;27;20498;-59
2020/12/29 04:37:50;;;;;;;3.30;3.00;;;11.60;69.90;;;;;;5137902;27;20467;-59
2020/12/29 04:40:18;;;;;;;3.90;3.60;;;11.60;69.90;;;;;;5136792;27;20538;-59
2020/12/29 04:42:44;;;;;;;4.40;4.00;;;11.60;70.00;;;;;;5137383;27;20477;-59
2020/12/29 04:45:11;;;;;;;4.07;3.67;;;11.60;70.00;;;;;;5137966;27;20427;-60
2020/12/29 04:47:38;;;;;;;4.30;3.90;;;11.60;69.80;;;;;;5137724;27;20477;-59
2020/12/29 04:50:05;;;;;;;5.43;3.80;;;11.60;69.90;;;;;;5136844;27;20442;-59
2020/12/29 04:52:32;;;;;;;4.07;3.67;;;11.60;69.90;;;;;;5137710;27;20438;-60
2020/12/29 04:54:59;;;;;;;4.00;3.70;;;11.60;69.90;;;;;;5137416;27;20458;-59
2020/12/29 04:57:27;;;;;;;3.97;3.67;;;11.60;70.00;;;;;;5136623;27;20453;-59
2020/12/29 04:59:55;;;;;;;3.30;2.87;;;11.50;70.00;;;;;;5116473;28;20436;-59
2020/12/29 05:02:22;;;;;;;3.83;3.53;;;11.60;70.10;;;;;;5116937;28;20485;-60
2020/12/29 05:04:49;;;;;;;3.80;3.50;;;11.50;70.10;;;;;;5116557;28;20527;-59
2020/12/29 05:07:15;;;;;;;3.73;3.43;;;11.60;70.20;;;;;;5115908;28;20511;-59
2020/12/29 05:09:43;;;;;;;4.00;3.60;;;11.60;69.90;;;;;;5115951;28;20512;-60
2020/12/29 05:12:10;;;;;;;4.63;4.23;;;11.60;69.90;;;;;;5116733;28;20505;-59
2020/12/29 05:14:38;;;;;;;3.57;3.37;;;11.60;70.00;;;;;;5116307;28;20476;-60
2020/12/29 05:17:05;;;;;;;5.00;4.00;;;11.60;69.80;;;;;;5133523;27;20434;-59
2020/12/29 05:19:32;;;;;;;4.13;3.73;;;11.60;69.90;;;;;;5137030;27;20438;-60
2020/12/29 05:21:59;;;;;;;8.73;4.00;;;11.60;70.00;;;;;;5136615;27;20463;-60
2020/12/29 05:24:26;;;;;;;4.70;4.13;;;11.60;70.00;;;;;;5136691;27;20476;-60
2020/12/29 05:26:54;;;;;;;4.50;3.73;;;11.60;70.20;;;;;;5136939;27;20455;-60
2020/12/29 05:29:21;;;;;;;4.23;3.57;;;11.60;70.20;;;;;;5136932;27;20457;-60
2020/12/29 05:31:49;;;;;;;4.17;3.87;;;11.60;70.10;;;;;;5136232;27;20459;-59
2020/12/29 05:34:20;;;;;;;4.70;3.63;;;11.50;70.10;;;;;;5123911;27;20470;-59
2020/12/29 05:36:47;;;;;;;3.83;3.53;;;11.60;70.20;;;;;;5116095;28;20547;-59
2020/12/29 05:39:18;;;;;;;3.80;3.50;;;11.50;70.20;;;;;;5116046;28;20432;-59
2020/12/29 05:41:46;;;;;;;3.70;3.40;;;11.50;70.30;;;;;;5116262;27;20432;-59
2020/12/29 05:44:15;;;;;;;3.70;3.40;;;11.60;70.20;;;;;;5136496;27;20535;-60
2020/12/29 05:46:44;;;;;;;6.30;3.97;;;11.60;70.10;;;;;;5136550;27;20519;-60
2020/12/29 05:49:12;;;;;;;4.23;3.83;;;11.70;69.90;;;;;;5136468;27;20466;-59
2020/12/29 05:51:39;;;;;;;6.20;3.70;;;11.70;70.00;;;;;;5125842;27;20432;-59
2020/12/29 05:54:05;;;;;;;4.33;3.80;;;11.60;70.00;;;;;;5116067;28;20435;-59
2020/12/29 05:56:33;;;;;;;4.13;3.73;;;11.70;70.10;;;;;;5115838;28;20475;-59
2020/12/29 05:59:01;;;;;;;4.33;3.93;;;11.60;69.70;;;;;;5115740;28;20507;-59
2020/12/29 06:01:41;;;;;;;4.07;3.70;;;11.60;70.00;;;;;;5115407;27;20534;-59
2020/12/29 06:04:08;;;;;;;3.53;3.23;;;11.60;70.10;;;;;;5115817;28;20475;-60
2020/12/29 06:06:36;;;;;;;3.70;3.40;;;11.60;70.00;;;;;;5115720;28;20455;-59
2020/12/29 06:09:05;;;;;;;4.33;4.00;;;11.60;70.00;;;;;;5115666;28;20432;-59
2020/12/29 06:11:40;;;;;;;4.47;4.00;;;11.70;70.00;;;;;;5114937;28;20431;-59
2020/12/29 06:14:14;;;;;;;4.30;3.90;;;11.60;69.90;;;;;;5115210;28;20463;-59
2020/12/29 06:16:41;;;;;;;4.00;3.60;;;11.60;70.00;;;;;;5115171;28;20554;-59
2020/12/29 06:19:27;;;;;;;4.10;3.70;;;11.60;70.00;;;;;;5132987;27;20511;-59
2020/12/29 06:22:05;;;;;;;4.83;4.40;;;11.60;70.10;;;;;;5135427;27;20514;-59
2020/12/29 06:24:34;;;;;;;3.77;3.40;;;11.60;70.20;;;;;;5135576;27;20438;-59
2020/12/29 06:27:01;;;;;;;4.30;3.90;;;11.60;70.00;;;;;;5135578;27;20459;-59
2020/12/29 06:29:32;;;;;;;4.30;3.97;;;11.60;69.90;;;;;;5135539;27;20522;-59
2020/12/29 06:32:04;;;;;;;4.67;4.27;;;11.60;69.90;;;;;;5134927;27;20435;-59
2020/12/29 06:34:33;;;;;;;4.33;3.80;;;11.60;69.90;;;;;;5135449;27;20435;-59
2020/12/29 06:37:07;;;;;;;5.00;3.97;;;11.60;69.90;;;;;;5135184;27;20538;-59
2020/12/29 06:39:38;;;;;;;4.20;3.83;;;11.60;70.00;;;;;;5135409;27;20434;-61
2020/12/29 06:42:05;;;;;;;3.73;3.43;;;11.60;70.00;;;;;;5135197;27;20518;-60
2020/12/29 06:44:32;;;;;;;6.20;4.30;;;11.70;70.00;;;;;;5135131;27;20478;-60
2020/12/29 06:46:59;;;;;;;4.20;3.90;;;11.70;69.80;;;;;;5135288;27;20423;-59
2020/12/29 06:49:26;;;;;;;4.80;4.30;;;11.60;69.80;;;;;;5135451;27;20435;-60
2020/12/29 06:52:18;;;;;;;3.97;3.67;;;11.60;69.90;;;;;;5134615;27;20477;-59
2020/12/29 06:54:47;;;;;;;4.47;4.03;;;11.60;70.00;;;;;;5134935;27;20431;-62
2020/12/29 06:57:13;;;;;;;4.13;3.73;;;11.60;70.10;;;;;;5135184;27;20471;-59
2020/12/29 06:59:40;;;;;;;8.73;4.20;;;11.60;70.00;;;;;;5135025;27;20439;-59
2020/12/29 07:02:21;;;;;;;4.37;3.97;;;11.70;69.90;;;;;;5128106;27;20452;-59
2020/12/29 07:04:48;;;;;;;7.33;4.30;;;11.60;70.20;;;;;;5115064;28;20427;-59
2020/12/29 07:07:27;;;;;;;4.60;4.20;;;11.60;70.10;;;;;;5114505;28;20471;-58
2020/12/29 07:09:59;;;;;;;4.20;3.80;;;11.60;70.00;;;;;;5114300;28;20514;-59
2020/12/29 07:12:29;;;;;;;4.80;4.30;;;11.60;70.00;;;;;;5114657;28;20463;-59
2020/12/29 07:14:56;;;;;;;4.77;4.27;;;11.70;70.00;;;;;;5114651;28;20539;-59
2020/12/29 07:17:24;;;;;;;5.57;4.47;;;11.70;69.80;;;;;;5114666;28;20440;-59
2020/12/29 07:19:53;;;;;;;4.23;3.93;;;11.60;69.90;;;;;;5114154;28;20471;-59
2020/12/29 07:22:20;;;;;;;4.60;4.20;;;11.60;70.70;;;;;;5114529;28;20463;-59
2020/12/29 07:24:49;;;;;;;4.70;3.90;;;11.60;70.20;;;;;;5114493;28;20467;-59
2020/12/29 07:27:15;;;;;;;3.87;3.53;;;11.70;70.10;;;;;;5114169;28;20428;-60
2020/12/29 07:29:52;;;;;;;4.43;4.00;;;11.60;70.00;;;;;;5114743;28;20439;-59
2020/12/29 07:32:20;;;;;;;4.73;4.27;;;11.60;70.00;;;;;;5118632;28;20512;-59
2020/12/29 07:34:47;;;;;;;4.53;4.13;;;11.60;69.90;;;;;;5118661;28;20471;-59
2020/12/29 07:37:15;;;;;;;4.47;4.07;;;11.60;70.00;;;;;;5118285;28;20492;-59
2020/12/29 07:39:43;;;;;;;4.10;3.80;;;11.70;70.00;;;;;;5117650;28;20504;-59
2020/12/29 07:42:12;;;;;;;4.23;3.93;;;11.70;70.00;;;;;;5118517;28;20436;-59
2020/12/29 07:44:39;;;;;;;4.60;4.20;;;11.70;70.00;;;;;;5117451;28;20542;-59
2020/12/29 07:47:06;;;;;;;4.60;4.20;;;11.70;69.90;;;;;;5117510;28;20438;-59
2020/12/29 07:49:33;;;;;;;5.63;4.73;;;11.70;70.10;;;;;;5117724;28;20522;-59
2020/12/29 07:52:00;;;;;;;7.97;4.20;;;11.70;69.90;;;;;;5121433;27;20439;-59
2020/12/29 07:54:26;;;;;;;4.63;4.20;;;11.70;70.00;;;;;;5134891;27;20483;-59
2020/12/29 07:56:53;;;;;;;4.50;4.10;;;11.70;69.90;;;;;;5130312;27;20505;-59
2020/12/29 07:59:22;;;;;;;4.80;3.97;;;11.70;70.00;;;;;;5135335;27;20534;-59
2020/12/29 08:01:54;;;;;;;4.17;3.77;;;11.70;70.00;;;;;;5137986;27;20463;-59
2020/12/29 08:04:24;;;;;;;4.00;3.60;;;11.60;70.20;;;;;;5137946;27;20439;-59
2020/12/29 08:06:51;;;;;;;4.13;3.73;;;11.70;70.10;;;;;;5138328;27;20419;-59
2020/12/29 08:09:18;;;;;;;4.80;4.30;;;11.70;69.90;;;;;;5138538;27;20573;-59
2020/12/29 08:11:45;;;;;;;4.67;4.20;;;11.80;69.80;;;;;;5137763;27;20478;-60
2020/12/29 08:14:12;;;;;;;3.73;3.43;;;11.80;69.80;;;;;;5138036;27;20477;-59
2020/12/29 08:16:40;;;;;;;4.70;4.30;;;11.80;69.80;;;;;;5138181;27;20490;-60
2020/12/29 08:19:09;;;;;;;4.80;4.30;;;11.80;69.60;;;;;;5138171;27;20463;-60
2020/12/29 08:21:37;;;;;;;4.40;4.00;;;11.80;69.50;;;;;;5137057;27;20445;-60
2020/12/29 08:24:04;;;;;;;4.47;4.03;;;11.80;69.50;;;;;;5138195;27;20487;-60
2020/12/29 08:26:31;;;;;;;4.77;4.30;;;11.80;69.60;;;;;;5138359;27;20466;-59
2020/12/29 08:28:58;;;;;;;4.00;3.70;;;11.80;69.70;;;;;;5137987;27;20596;-60
2020/12/29 08:31:27;;;;;;;5.10;4.70;;;11.80;69.90;;;;;;5137345;27;20451;-60
2020/12/29 08:33:55;;;;;;;4.60;4.20;;;11.70;69.90;;;;;;5137329;27;20538;-60
2020/12/29 08:36:23;;;;;;;5.03;4.30;;;11.70;69.80;;;;;;5137979;27;20568;-60
2020/12/29 08:39:20;;;;;;;4.37;3.97;;;11.70;69.80;;;;;;5137305;27;20431;-60
2020/12/29 08:41:51;;;;;;;5.20;4.70;;;11.70;69.90;;;;;;5135827;27;20464;-60
2020/12/29 08:44:18;;;;;;;4.53;4.10;;;11.70;70.00;;;;;;5137437;27;20538;-60
2020/12/29 08:46:45;;;;;;;5.20;4.70;;;11.70;70.00;;;;;;5137979;27;20462;-60
2020/12/29 08:49:13;;;;;;;5.80;4.60;;;11.70;69.90;;;;;;5137330;27;20467;-60
2020/12/29 08:51:40;;;;;;;5.60;4.80;;;11.80;69.80;;;;;;5137088;27;20439;-60
2020/12/29 08:54:08;;;;;;;4.73;4.30;;;11.80;69.60;;;;;;5137521;27;20465;-60
2020/12/29 08:56:35;;;;;;;6.57;4.80;;;11.80;69.60;;;;;;5134896;27;20546;-60
2020/12/29 08:59:12;;;;;;;8.83;5.33;;;11.80;69.50;;;;;;5116804;28;20444;-59
2020/12/29 09:01:40;;;;;;;5.00;4.50;;;11.80;69.40;;;;;;5116408;28;20432;-60
2020/12/29 09:04:24;;;;;;;5.40;4.60;;;11.80;69.40;;;;;;5117038;28;20444;-60
2020/12/29 09:06:58;;;;;;;5.10;4.50;;;11.80;69.70;;;;;;5130364;27;20438;-60
2020/12/29 09:09:25;;;;;;;5.37;4.77;;;11.80;69.50;;;;;;5136821;27;20430;-60
2020/12/29 09:12:22;;;;;;;5.33;4.73;;;11.80;69.50;;;;;;5136672;27;20435;-60
2020/12/29 09:14:53;;;;;;;4.87;4.37;;;11.80;69.50;;;;;;5130975;27;20514;-60
2020/12/29 09:17:20;;;;;;;7.13;4.90;;;11.80;69.60;;;;;;5116655;28;20468;-60
2020/12/29 09:20:07;;;;;;;5.97;4.90;;;11.70;69.60;;;;;;5115667;28;20467;-60
2020/12/29 09:22:34;;;;;;;4.77;4.37;;;11.80;69.40;;;;;;5116402;28;20463;-60
2020/12/29 09:25:01;;;;;;;4.90;4.40;;;11.90;69.30;;;;;;5116497;27;20447;-60
2020/12/29 09:27:28;;;;;;;9.73;4.80;;;11.80;69.40;;;;;;5116326;28;20463;-60
2020/12/29 09:29:55;;;;;;;7.13;5.17;;;11.80;69.50;;;;;;5115628;28;20531;-60
2020/12/29 09:32:23;;;;;;;5.77;4.90;;;11.80;69.40;;;;;;5116404;27;20462;-60
2020/12/29 09:34:50;;;;;;;7.50;5.37;;;11.80;69.40;;;;;;5116035;28;20471;-60
2020/12/29 09:37:17;;;;;;;5.30;4.80;;;11.80;69.20;;;;;;5115984;28;20563;-60
2020/12/29 09:39:44;;;;;;;5.37;4.83;;;11.90;69.30;;;;;;5115604;28;20475;-60
2020/12/29 09:42:11;;;;;;;5.07;4.57;;;11.80;69.50;;;;;;5129007;27;20527;-60
2020/12/29 09:44:39;;;;;;;4.83;4.43;;;11.80;69.40;;;;;;5136332;27;20508;-60
2020/12/29 09:47:06;;;;;;;5.47;4.97;;;11.80;69.40;;;;;;5135975;27;20435;-60
2020/12/29 09:49:32;;;;;;;5.37;4.87;;;11.80;69.30;;;;;;5135289;27;20439;-60
2020/12/29 09:52:01;;;;;;;5.73;5.20;;;11.80;69.20;;;;;;5132620;27;20498;-60
2020/12/29 09:54:29;;;;;;;5.63;4.80;;;11.90;69.50;;;;;;5134839;27;20441;-60
2020/12/29 09:56:56;;;;;;;6.33;5.23;;;11.80;69.40;;;;;;5132447;27;20581;-60
2020/12/29 09:59:23;;;;;;;4.40;4.10;;;11.80;69.50;;;;;;5134538;27;20492;-60
2020/12/29 10:01:50;;;;;;;5.93;4.97;;;11.90;69.40;;;;;;5135451;27;20431;-60
2020/12/29 10:04:17;;;;;;;5.63;4.47;;;11.90;69.30;;;;;;5136105;27;20471;-60
2020/12/29 10:06:44;;;;;;;5.20;4.70;;;11.90;69.40;;;;;;5136133;27;20522;-60
2020/12/29 10:09:10;;;;;;;5.60;4.77;;;11.80;69.20;;;;;;5135507;27;20462;-60
2020/12/29 10:11:38;;;;;;;5.60;4.73;;;11.90;69.40;;;;;;5136050;27;20460;-60
2020/12/29 10:14:05;;;;;;;5.20;4.67;;;11.90;69.20;;;;;;5134805;27;20499;-60
2020/12/29 10:16:33;;;;;;;5.30;4.80;;;11.90;69.20;;;;;;5134384;27;20471;-60
2020/12/29 10:19:00;;;;;;;4.93;4.50;;;11.80;69.40;;;;;;5134969;27;20427;-60
2020/12/29 10:21:27;;;;;;;5.20;4.50;;;11.90;69.30;;;;;;5134348;27;20476;-60
2020/12/29 10:23:54;;;;;;;4.90;4.47;;;11.80;69.30;;;;;;5135027;27;20431;-60
2020/12/29 10:26:21;;;;;;;5.13;4.63;;;11.80;69.50;;;;;;5134228;27;20435;-60
2020/12/29 10:28:48;;;;;;;4.70;4.30;;;11.80;69.60;;;;;;5131864;27;20459;-60
2020/12/29 10:31:15;;;;;;;5.37;4.80;;;11.90;69.60;;;;;;5133988;27;20443;-60
2020/12/29 10:33:42;;;;;;;4.63;4.23;;;11.80;69.40;;;;;;5132078;27;20508;-58
2020/12/29 10:36:09;;;;;;;5.13;4.63;;;11.90;69.30;;;;;;5129374;27;20497;-58
2020/12/29 10:38:36;;;;;;;6.60;5.07;;;11.90;69.40;;;;;;5134341;27;20455;-56
2020/12/29 10:41:02;;;;;;;4.87;4.40;;;12.00;69.30;;;;;;5133196;27;20462;-60
2020/12/29 10:43:29;;;;;;;5.20;4.70;;;11.90;69.30;;;;;;5133622;27;20474;-59
2020/12/29 10:45:58;;;;;;;5.20;4.40;;;12.00;69.10;;;;;;5134216;27;20517;-56
2020/12/29 10:48:25;;;;;;;5.87;4.83;;;12.00;69.00;;;;;;5134157;27;20437;-56
2020/12/29 10:50:52;;;;;;;5.67;5.00;;;12.00;69.10;;;;;;5133452;27;20419;-56
2020/12/29 10:53:18;;;;;;;4.50;4.10;;;12.00;69.30;;;;;;5134014;27;20463;-57
2020/12/29 10:55:45;;;;;;;6.90;4.57;;;12.00;69.30;;;;;;5134000;27;20504;-58
2020/12/29 10:58:12;;;;;;;4.73;4.33;;;12.00;69.20;;;;;;5133969;27;20435;-58
2020/12/29 11:00:39;;;;;;;4.87;4.47;;;12.00;69.20;;;;;;5125463;27;20543;-57
2020/12/29 11:03:06;;;;;;;4.73;4.30;;;12.10;69.20;;;;;;5129752;27;20525;-59
2020/12/29 11:05:33;;;;;;;4.47;3.90;;;12.00;69.20;;;;;;5124846;27;20444;-61
2020/12/29 11:08:00;;;;;;;4.53;4.13;;;12.00;69.30;;;;;;5129659;27;20431;-61
2020/12/29 11:10:27;;;;;;;4.60;4.20;;;12.00;69.30;;;;;;5134090;27;20455;-61
2020/12/29 11:12:54;;;;;;;4.83;4.43;;;12.00;69.30;;;;;;5121855;28;20468;-59
2020/12/29 11:15:21;;;;;;;5.00;4.60;;;12.00;69.20;;;;;;5131024;28;20435;-60
2020/12/29 11:17:48;;;;;;;5.53;5.03;;;12.20;68.70;;;;;;5126447;28;20476;-60
2020/12/29 11:20:15;;;;;;;4.97;4.50;;;12.30;68.30;;;;;;5133988;28;20515;-60
2020/12/29 11:22:44;;;;;;;5.07;4.57;;;12.20;68.40;;;;;;5134698;28;20471;-60
2020/12/29 11:25:11;;;;;;;4.77;4.37;;;12.10;69.00;;;;;;5135069;28;20457;-60
2020/12/29 11:27:38;;;;;;;4.40;4.00;;;12.10;69.90;;;;;;5134789;28;20514;-60
2020/12/29 11:30:05;;;;;;;5.10;4.20;;;12.10;69.40;;;;;;5134175;28;20526;-60
2020/12/29 11:32:32;;;;;;;4.97;4.47;;;12.00;69.30;;;;;;5135092;28;20438;-60
2020/12/29 11:34:59;;;;;;;5.00;4.50;;;12.10;69.10;;;;;;5134592;28;20499;-60
2020/12/29 11:37:27;;;;;;;5.17;4.07;;;12.10;69.30;;;;;;5119006;28;20475;-60
2020/12/29 11:39:56;;;;;;;5.10;4.47;;;12.10;69.40;;;;;;5113844;28;20456;-59
2020/12/29 11:42:23;;;;;;;4.80;4.40;;;12.10;69.40;;;;;;5130299;28;20456;-61
2020/12/29 11:44:50;;;;;;;6.23;4.77;;;12.10;69.60;;;;;;5131721;28;20476;-61
2020/12/29 11:47:16;;;;;;;4.57;4.17;;;12.10;69.70;;;;;;5114648;28;20501;-60
2020/12/29 11:49:44;;;;;;;7.17;4.30;;;12.00;69.70;;;;;;5113579;28;20463;-60
2020/12/29 11:52:11;;;;;;;6.00;3.97;;;12.10;69.80;;;;;;5125386;28;20467;-60
2020/12/29 11:54:39;;;;;;;4.70;4.13;;;12.00;70.00;;;;;;5123637;28;20452;-60
2020/12/29 11:57:06;;;;;;;4.83;3.90;;;12.00;70.00;;;;;;5113914;28;20558;-60
2020/12/29 11:59:33;;;;;;;4.77;4.10;;;12.10;70.00;;;;;;5113856;28;20471;-60
2020/12/29 12:01:59;;;;;;;4.90;4.07;;;12.10;69.90;;;;;;5113351;28;20477;-60
2020/12/29 12:04:31;;;;;;;4.30;4.00;;;12.10;70.10;;;;;;5133182;28;20508;-60
2020/12/29 12:06:58;;;;;;;4.33;3.97;;;12.00;69.90;;;;;;5134436;28;20503;-61
2020/12/29 12:09:25;;;;;;;5.00;4.47;;;12.10;70.00;;;;;;5134416;28;20463;-60
2020/12/29 12:11:52;;;;;;;4.67;4.20;;;12.10;70.00;;;;;;5133365;28;20435;-60
2020/12/29 12:14:19;;;;;;;4.50;4.10;;;12.00;70.00;;;;;;5128869;28;20508;-61
2020/12/29 12:16:47;;;;;;;5.37;4.10;;;12.10;70.10;;;;;;5130205;27;20558;-60
2020/12/29 12:19:14;;;;;;;4.47;4.10;;;12.10;70.00;;;;;;5133755;27;20462;-60
2020/12/29 12:21:41;;;;;;;4.30;3.90;;;12.10;70.00;;;;;;5122336;27;20530;-60
2020/12/29 12:24:08;;;;;;;5.80;4.83;;;12.10;70.00;;;;;;5117726;28;20463;-60
2020/12/29 12:26:34;;;;;;;5.13;4.00;;;12.20;69.90;;;;;;5117332;28;20523;-60
2020/12/29 12:29:02;;;;;;;5.33;4.83;;;12.20;69.80;;;;;;5119304;27;20478;-60
2020/12/29 12:31:29;;;;;;;4.23;3.83;;;12.10;69.80;;;;;;5137296;27;20434;-60
2020/12/29 12:33:56;;;;;;;4.57;4.17;;;12.10;69.90;;;;;;5137807;27;20491;-60
2020/12/29 12:36:22;;;;;;;4.53;4.10;;;12.00;69.90;;;;;;5137397;27;20573;-60
2020/12/29 12:38:49;;;;;;;4.70;4.20;;;12.00;70.00;;;;;;5127063;27;20546;-60
2020/12/29 12:41:16;;;;;;;6.00;4.73;;;12.00;69.90;;;;;;5123378;27;20474;-60
2020/12/29 12:43:44;;;;;;;6.10;4.90;;;12.00;69.60;;;;;;5137387;27;20478;-60
2020/12/29 12:46:12;;;;;;;3.90;3.60;;;12.00;69.70;;;;;;5137193;27;20526;-60
2020/12/29 12:48:40;;;;;;;4.50;4.10;;;12.00;69.60;;;;;;5137198;27;20496;-60
2020/12/29 12:51:06;;;;;;;5.73;4.77;;;12.00;69.40;;;;;;5137014;27;20469;-60